Time;durP1;ratioP1;P1;durP2;ratioP2;P2;SDS_P1;SDS_P2;PMS_P1;PMS_P2;Temp;Humidity;BMP_temperature;BMP_pressure;BME280_temperature;BME280_humidity;BME280_pressure;Samples;Min_cycle;Max_cycle;Signal;HPM_P1;HPM_P2
2021/04/21 00:01:03;;;;;;;14.03;5.80;;;5.90;99.90;;;;;;1956238;73;21122;-75
2021/04/21 00:03:29;;;;;;;7.87;4.70;;;5.90;99.90;;;;;;1956285;73;21089;-75
2021/04/21 00:05:56;;;;;;;8.48;5.47;;;5.90;99.90;;;;;;1956264;73;21118;-75
2021/04/21 00:08:24;;;;;;;7.22;5.30;;;5.80;99.90;;;;;;1956287;73;21089;-75
2021/04/21 00:10:50;;;;;;;9.08;5.03;;;5.80;99.90;;;;;;1956095;73;21120;-74
2021/04/21 00:13:16;;;;;;;9.35;6.10;;;5.80;99.90;;;;;;1956228;73;21068;-74
2021/04/21 00:15:42;;;;;;;6.50;4.55;;;5.80;99.90;;;;;;1956250;73;21093;-73
2021/04/21 00:18:10;;;;;;;13.32;6.30;;;5.70;99.90;;;;;;1956208;73;21103;-74
2021/04/21 00:20:36;;;;;;;7.10;5.08;;;5.70;99.90;;;;;;1956336;73;21122;-74
2021/04/21 00:23:02;;;;;;;10.15;5.12;;;5.60;99.90;;;;;;1956210;73;21089;-74
2021/04/21 00:25:28;;;;;;;9.40;5.22;;;5.60;99.90;;;;;;1956226;73;21544;-73
2021/04/21 00:27:54;;;;;;;7.58;5.35;;;5.60;99.90;;;;;;1956308;73;21122;-75
2021/04/21 00:30:20;;;;;;;6.25;4.62;;;5.50;99.90;;;;;;1956348;73;21177;-74
2021/04/21 00:32:46;;;;;;;10.93;5.78;;;5.50;99.90;;;;;;1956282;73;21063;-74
2021/04/21 00:35:13;;;;;;;9.18;5.58;;;5.40;99.90;;;;;;1956355;73;21061;-75
2021/04/21 00:37:39;;;;;;;17.70;5.47;;;5.30;99.90;;;;;;1956302;73;21045;-75
2021/04/21 00:40:05;;;;;;;8.25;5.67;;;5.30;99.90;;;;;;1956280;73;21083;-75
2021/04/21 00:42:31;;;;;;;9.88;6.08;;;5.30;99.90;;;;;;1956266;73;21085;-74
2021/04/21 00:44:57;;;;;;;16.70;5.85;;;5.40;99.90;;;;;;1956255;73;21166;-74
2021/04/21 00:47:24;;;;;;;11.93;6.62;;;5.40;99.90;;;;;;1956239;73;21162;-75
2021/04/21 00:49:50;;;;;;;13.98;6.83;;;5.30;99.90;;;;;;1956431;73;21104;-75
2021/04/21 00:52:16;;;;;;;9.95;6.55;;;5.30;99.90;;;;;;1956050;73;21104;-76
2021/04/21 00:54:46;;;;;;;14.35;6.47;;;5.40;99.90;;;;;;1955315;73;21060;-74
2021/04/21 00:57:12;;;;;;;12.28;7.00;;;5.30;99.90;;;;;;1955564;73;21116;-75
2021/04/21 00:59:38;;;;;;;17.48;7.72;;;5.40;99.90;;;;;;1956317;73;21065;-74
2021/04/21 01:02:04;;;;;;;14.93;7.78;;;5.20;99.90;;;;;;1956311;73;21520;-74
2021/04/21 01:04:30;;;;;;;11.50;7.45;;;5.30;99.90;;;;;;1956091;73;21140;-74
2021/04/21 01:06:56;;;;;;;13.15;7.17;;;5.30;99.90;;;;;;1956451;73;21041;-75
2021/04/21 01:09:23;;;;;;;13.03;7.35;;;5.20;99.90;;;;;;1956307;73;21068;-73
2021/04/21 01:11:49;;;;;;;11.40;6.92;;;5.10;99.90;;;;;;1954162;73;21155;-73
2021/04/21 01:14:15;;;;;;;9.93;6.10;;;5.10;99.90;;;;;;1955860;73;21072;-73
2021/04/21 01:16:41;;;;;;;9.33;6.15;;;5.10;99.90;;;;;;1956460;73;21125;-74
2021/04/21 01:19:07;;;;;;;12.45;5.90;;;5.00;99.90;;;;;;1956337;73;21068;-73
2021/04/21 01:21:33;;;;;;;12.07;5.85;;;4.90;99.90;;;;;;1956126;73;21089;-73
2021/04/21 01:23:59;;;;;;;9.95;5.90;;;4.90;99.90;;;;;;1956215;73;21097;-73
2021/04/21 01:26:28;;;;;;;9.25;5.72;;;4.90;99.90;;;;;;1956233;73;21488;-73
2021/04/21 01:28:55;;;;;;;18.45;6.17;;;4.80;99.90;;;;;;1956243;73;21611;-74
2021/04/21 01:31:22;;;;;;;11.40;6.80;;;4.80;99.90;;;;;;1956234;73;21155;-74
2021/04/21 01:33:50;;;;;;;10.35;6.87;;;4.80;99.90;;;;;;1956212;73;21096;-74
2021/04/21 01:36:15;;;;;;;13.65;6.72;;;4.70;99.90;;;;;;1955955;73;21085;-73
2021/04/21 01:38:42;;;;;;;15.80;7.90;;;4.70;99.90;;;;;;1956113;73;21170;-73
2021/04/21 01:41:08;;;;;;;11.75;7.65;;;4.70;99.90;;;;;;1956146;73;21082;-74
2021/04/21 01:43:34;;;;;;;14.07;7.08;;;4.70;99.90;;;;;;1956155;73;21081;-74
2021/04/21 01:46:00;;;;;;;22.00;7.03;;;4.70;99.90;;;;;;1956164;73;21182;-73
2021/04/21 01:48:26;;;;;;;11.18;6.87;;;4.70;99.90;;;;;;1956238;73;21077;-73
2021/04/21 01:50:53;;;;;;;15.30;7.37;;;4.70;99.90;;;;;;1956246;73;21072;-73
2021/04/21 01:53:19;;;;;;;13.32;7.10;;;4.60;99.90;;;;;;1956201;73;21122;-74
2021/04/21 01:55:45;;;;;;;10.80;7.12;;;4.60;99.90;;;;;;1956010;73;21093;-74
2021/04/21 01:58:11;;;;;;;12.78;6.92;;;4.60;99.90;;;;;;1956109;73;21093;-73
2021/04/21 02:00:37;;;;;;;9.50;6.85;;;4.50;99.90;;;;;;1956214;73;21060;-73
2021/04/21 02:03:03;;;;;;;14.45;7.42;;;4.50;99.90;;;;;;1956151;73;21092;-74
2021/04/21 02:05:30;;;;;;;12.58;8.08;;;4.50;99.90;;;;;;1956114;73;21092;-73
2021/04/21 02:07:56;;;;;;;15.80;7.92;;;4.50;99.90;;;;;;1956121;73;21096;-73
2021/04/21 02:10:23;;;;;;;10.25;6.95;;;4.50;99.90;;;;;;1956209;73;21469;-73
2021/04/21 02:12:49;;;;;;;16.52;8.30;;;4.50;99.90;;;;;;1956327;73;21060;-73
2021/04/21 02:15:15;;;;;;;11.90;7.15;;;4.40;99.90;;;;;;1956098;73;21085;-73
2021/04/21 02:17:41;;;;;;;14.40;6.80;;;4.40;99.90;;;;;;1956056;73;21084;-73
2021/04/21 02:20:07;;;;;;;14.07;7.28;;;4.30;99.90;;;;;;1956098;73;21257;-73
2021/04/21 02:22:34;;;;;;;11.50;7.90;;;4.30;99.90;;;;;;1956075;73;21170;-73
2021/04/21 02:25:02;;;;;;;16.52;7.37;;;4.30;99.90;;;;;;1956126;73;21532;-73
2021/04/21 02:30:13;;;;;;;15.93;7.62;;;4.20;99.90;;;;;;1956384;73;21473;-73
2021/04/21 02:32:39;;;;;;;12.47;7.83;;;4.20;99.90;;;;;;1956202;73;21032;-73
2021/04/21 02:35:05;;;;;;;12.13;7.53;;;4.10;99.90;;;;;;1956213;73;21075;-73
2021/04/21 02:37:31;;;;;;;10.95;7.17;;;4.00;99.90;;;;;;1956305;73;21060;-73
2021/04/21 02:39:57;;;;;;;11.53;7.67;;;4.00;99.90;;;;;;1956344;73;21056;-75
2021/04/21 02:42:23;;;;;;;12.15;7.05;;;4.00;99.90;;;;;;1956344;73;21118;-74
2021/04/21 02:44:50;;;;;;;13.38;7.58;;;4.00;99.90;;;;;;1956344;73;21056;-74
2021/04/21 02:47:16;;;;;;;13.20;8.08;;;4.00;99.90;;;;;;1956231;73;21519;-74
2021/04/21 02:49:42;;;;;;;12.78;7.53;;;4.00;99.90;;;;;;1956240;73;21507;-74
2021/04/21 02:52:08;;;;;;;12.35;7.75;;;4.00;99.90;;;;;;1956195;73;21516;-74
2021/04/21 02:54:34;;;;;;;20.08;7.72;;;4.00;99.90;;;;;;1956235;73;21496;-74
2021/04/21 02:57:00;;;;;;;12.65;8.08;;;4.00;99.90;;;;;;1956216;73;21077;-74
2021/04/21 02:59:26;;;;;;;12.10;7.30;;;3.90;99.90;;;;;;1956214;73;21122;-74
2021/04/21 03:01:52;;;;;;;14.23;7.28;;;3.90;99.90;;;;;;1956371;73;21099;-74
2021/04/21 03:04:19;;;;;;;12.73;7.45;;;3.90;99.90;;;;;;1956239;73;21126;-75
2021/04/21 03:06:45;;;;;;;18.40;8.25;;;3.80;99.90;;;;;;1956253;73;21085;-74
2021/04/21 03:09:11;;;;;;;11.68;7.67;;;3.80;99.90;;;;;;1956350;73;21144;-74
2021/04/21 03:11:37;;;;;;;11.18;8.00;;;3.80;99.90;;;;;;1956321;73;21034;-74
2021/04/21 03:14:03;;;;;;;20.35;9.20;;;3.80;99.90;;;;;;1956326;73;21068;-74
2021/04/21 03:16:29;;;;;;;15.32;8.05;;;3.80;99.90;;;;;;1956336;73;21057;-74
2021/04/21 03:18:55;;;;;;;17.07;8.83;;;3.80;99.90;;;;;;1956165;73;21055;-72
2021/04/21 03:21:22;;;;;;;14.65;8.08;;;3.70;99.90;;;;;;1956220;73;21143;-73
2021/04/21 03:23:48;;;;;;;10.68;7.62;;;3.70;99.90;;;;;;1956219;73;21085;-73
2021/04/21 03:26:14;;;;;;;12.28;7.42;;;3.70;99.90;;;;;;1956230;73;21057;-73
2021/04/21 03:28:40;;;;;;;14.47;7.37;;;3.70;99.90;;;;;;1956330;73;21025;-73
2021/04/21 03:31:06;;;;;;;12.55;8.30;;;3.70;99.90;;;;;;1956135;73;21146;-74
2021/04/21 03:33:32;;;;;;;15.72;8.88;;;3.70;99.90;;;;;;1956332;73;21052;-75
2021/04/21 03:35:58;;;;;;;15.03;9.35;;;3.60;99.90;;;;;;1956423;73;21045;-74
2021/04/21 03:38:24;;;;;;;16.17;9.03;;;3.60;99.90;;;;;;1956390;73;21056;-74
2021/04/21 03:40:51;;;;;;;13.78;8.28;;;3.60;99.90;;;;;;1956415;73;21033;-74
2021/04/21 03:43:17;;;;;;;12.55;8.65;;;3.60;99.90;;;;;;1956202;73;21472;-74
2021/04/21 03:45:43;;;;;;;18.57;9.20;;;3.50;99.90;;;;;;1956303;73;21488;-74
2021/04/21 03:48:09;;;;;;;16.30;8.73;;;3.50;99.90;;;;;;1956110;73;21093;-74
2021/04/21 03:50:36;;;;;;;19.75;9.03;;;3.60;99.90;;;;;;1956199;73;21077;-74
2021/04/21 03:53:02;;;;;;;15.48;8.38;;;3.50;99.90;;;;;;1956060;73;21518;-74
2021/04/21 03:55:28;;;;;;;14.40;8.73;;;3.50;99.90;;;;;;1956124;73;21053;-74
2021/04/21 03:57:54;;;;;;;16.12;8.45;;;3.50;99.90;;;;;;1956258;73;21059;-72
2021/04/21 04:00:21;;;;;;;19.23;8.30;;;3.50;99.90;;;;;;1956112;73;21170;-74
2021/04/21 04:02:47;;;;;;;28.32;8.43;;;3.40;99.90;;;;;;1956310;73;21056;-75
2021/04/21 04:05:13;;;;;;;14.60;8.38;;;3.40;99.90;;;;;;1956089;73;21599;-74
2021/04/21 04:07:39;;;;;;;11.15;7.87;;;3.40;99.90;;;;;;1956309;73;21052;-74
2021/04/21 04:10:05;;;;;;;16.30;9.50;;;3.40;99.90;;;;;;1956202;73;21077;-74
2021/04/21 04:12:31;;;;;;;20.90;9.13;;;3.40;99.90;;;;;;1955040;73;21076;-73
2021/04/21 04:14:58;;;;;;;19.15;9.88;;;3.40;99.90;;;;;;1954288;73;21041;-72
2021/04/21 04:17:24;;;;;;;19.98;10.38;;;3.30;99.90;;;;;;1956039;73;21088;-74
2021/04/21 04:19:50;;;;;;;25.12;9.68;;;3.20;99.90;;;;;;1956312;73;21064;-74
2021/04/21 04:22:16;;;;;;;16.50;9.45;;;3.20;99.90;;;;;;1956117;73;21101;-74
2021/04/21 04:24:42;;;;;;;18.62;9.93;;;3.20;99.90;;;;;;1956335;73;21091;-74
2021/04/21 04:27:08;;;;;;;16.65;9.73;;;3.20;99.90;;;;;;1956116;73;21076;-73
2021/04/21 04:29:35;;;;;;;20.70;9.95;;;3.20;99.90;;;;;;1956342;73;21041;-74
2021/04/21 04:32:03;;;;;;;19.32;10.43;;;3.20;99.90;;;;;;1956122;73;21098;-74
2021/04/21 04:34:29;;;;;;;12.28;8.75;;;3.20;99.90;;;;;;1955319;73;21097;-74
2021/04/21 04:36:55;;;;;;;19.60;10.05;;;3.20;99.90;;;;;;1956423;73;21045;-73
2021/04/21 04:39:21;;;;;;;14.73;9.58;;;3.30;99.90;;;;;;1956283;73;21133;-74
2021/04/21 04:41:47;;;;;;;28.90;9.83;;;3.30;99.90;;;;;;1956429;73;21118;-75
2021/04/21 04:44:13;;;;;;;16.30;10.25;;;3.30;99.90;;;;;;1956061;73;21222;-74
2021/04/21 04:46:39;;;;;;;21.52;9.85;;;3.30;99.90;;;;;;1956269;73;21136;-74
2021/04/21 04:49:06;;;;;;;18.17;10.98;;;3.30;99.90;;;;;;1956056;73;21412;-74
2021/04/21 04:51:32;;;;;;;15.85;10.58;;;3.30;99.90;;;;;;1956317;73;21061;-74
2021/04/21 04:53:58;;;;;;;14.00;9.30;;;3.30;99.90;;;;;;1956349;73;21094;-73
2021/04/21 04:56:24;;;;;;;16.10;10.65;;;3.30;99.90;;;;;;1956407;73;21060;-74
2021/04/21 04:58:50;;;;;;;23.85;10.68;;;3.20;99.90;;;;;;1956021;73;21194;-74
2021/04/21 05:01:19;;;;;;;26.87;10.85;;;3.30;99.90;;;;;;1956287;73;21037;-75
2021/04/21 05:03:44;;;;;;;19.92;12.03;;;3.40;99.90;;;;;;1955666;72;21077;-75
2021/04/21 05:06:10;;;;;;;19.60;10.08;;;3.50;99.90;;;;;;1956079;73;21179;-73
2021/04/21 05:08:38;;;;;;;20.30;11.05;;;3.50;99.90;;;;;;1955638;73;21093;-75
2021/04/21 05:11:04;;;;;;;20.43;10.53;;;3.50;99.90;;;;;;1956290;73;21150;-75
2021/04/21 05:13:30;;;;;;;18.32;10.93;;;3.50;99.90;;;;;;1956041;73;21092;-74
2021/04/21 05:15:56;;;;;;;18.05;11.75;;;3.60;99.90;;;;;;1956272;73;21060;-74
2021/04/21 05:18:23;;;;;;;15.83;9.73;;;3.70;99.90;;;;;;1956016;73;21139;-74
2021/04/21 05:20:49;;;;;;;22.30;11.75;;;3.70;99.90;;;;;;1956236;73;21076;-73
2021/04/21 05:23:15;;;;;;;17.95;10.30;;;3.70;99.90;;;;;;1956122;73;21162;-74
2021/04/21 05:25:41;;;;;;;16.15;11.48;;;3.80;99.90;;;;;;1956128;73;21496;-73
2021/04/21 05:28:07;;;;;;;17.12;10.90;;;3.80;99.90;;;;;;1956011;73;21521;-73
2021/04/21 05:30:33;;;;;;;17.62;10.93;;;3.90;99.90;;;;;;1955998;73;21515;-73
2021/04/21 05:32:59;;;;;;;20.95;12.18;;;4.00;99.90;;;;;;1956223;73;21546;-73
2021/04/21 05:35:26;;;;;;;29.10;12.70;;;3.90;99.90;;;;;;1956028;73;21154;-74
2021/04/21 05:37:52;;;;;;;17.77;11.63;;;4.00;99.90;;;;;;1956218;73;21065;-75
2021/04/21 05:40:18;;;;;;;19.60;11.05;;;4.00;99.90;;;;;;1956065;73;21163;-75
2021/04/21 05:42:44;;;;;;;20.77;11.95;;;4.00;99.90;;;;;;1956289;73;21060;-75
2021/04/21 05:45:10;;;;;;;22.30;12.53;;;4.00;99.90;;;;;;1956173;73;21105;-75
2021/04/21 05:47:36;;;;;;;19.48;11.08;;;4.20;99.90;;;;;;1956123;73;21089;-75
2021/04/21 05:50:03;;;;;;;26.75;11.97;;;4.20;99.90;;;;;;1956261;73;21081;-73
2021/04/21 05:52:29;;;;;;;30.00;11.75;;;4.30;99.90;;;;;;1956106;73;21057;-75
2021/04/21 05:54:55;;;;;;;24.80;12.47;;;4.40;99.90;;;;;;1956120;73;21463;-74
2021/04/21 05:57:21;;;;;;;28.38;11.30;;;4.50;99.90;;;;;;1956033;73;21047;-73
2021/04/21 05:59:47;;;;;;;19.05;10.90;;;4.60;99.90;;;;;;1956198;73;21137;-74
2021/04/21 06:02:13;;;;;;;31.20;12.37;;;4.80;99.90;;;;;;1956162;73;21141;-74
2021/04/21 06:04:40;;;;;;;18.12;11.43;;;4.90;99.90;;;;;;1956380;73;21122;-72
2021/04/21 06:07:06;;;;;;;20.52;10.63;;;5.00;99.90;;;;;;1956394;73;21040;-74
2021/04/21 06:09:32;;;;;;;23.98;10.95;;;5.00;99.90;;;;;;1956276;73;21062;-74
2021/04/21 06:11:58;;;;;;;18.23;11.28;;;5.20;99.90;;;;;;1956311;73;21060;-75
2021/04/21 06:14:24;;;;;;;19.55;10.63;;;5.20;99.90;;;;;;1956296;73;21060;-75
2021/04/21 06:16:50;;;;;;;20.55;10.90;;;5.40;99.90;;;;;;1956144;73;21041;-76
2021/04/21 06:19:16;;;;;;;20.75;11.05;;;5.50;99.90;;;;;;1956095;73;21129;-73
2021/04/21 06:21:42;;;;;;;20.52;11.80;;;5.50;99.90;;;;;;1956053;73;21068;-72
2021/04/21 06:24:08;;;;;;;18.62;10.98;;;5.70;99.90;;;;;;1956127;73;21098;-72
2021/04/21 06:26:35;;;;;;;23.87;12.28;;;5.70;99.90;;;;;;1956185;73;21085;-71
2021/04/21 06:29:01;;;;;;;27.82;12.90;;;5.90;99.90;;;;;;1956190;73;21488;-71
2021/04/21 06:31:27;;;;;;;29.12;11.12;;;5.90;99.90;;;;;;1956132;73;21469;-70
2021/04/21 06:33:53;;;;;;;18.70;11.00;;;6.00;99.90;;;;;;1956411;73;21561;-70
2021/04/21 06:36:19;;;;;;;22.82;12.23;;;6.10;99.90;;;;;;1958205;73;21544;-70
2021/04/21 06:38:45;;;;;;;22.67;11.83;;;6.20;99.90;;;;;;1956482;73;21460;-70
2021/04/21 06:41:11;;;;;;;19.95;11.18;;;6.50;99.90;;;;;;1956104;73;21041;-71
2021/04/21 06:43:38;;;;;;;18.62;11.12;;;6.60;99.90;;;;;;1956154;73;21048;-70
2021/04/21 06:46:10;;;;;;;16.10;10.72;;;6.60;99.90;;;;;;1956206;73;21080;-70
2021/04/21 06:48:39;;;;;;;20.88;12.03;;;6.70;99.90;;;;;;1955999;73;21069;-70
2021/04/21 06:51:03;;;;;;;17.60;10.75;;;6.80;99.90;;;;;;1955272;73;21116;-71
2021/04/21 06:53:29;;;;;;;19.00;10.40;;;7.10;99.90;;;;;;1956227;73;21089;-71
2021/04/21 06:55:55;;;;;;;30.75;11.12;;;7.10;99.90;;;;;;1956306;73;21137;-71
2021/04/21 06:58:22;;;;;;;17.20;10.25;;;7.10;99.90;;;;;;1955317;73;21437;-71
2021/04/21 07:00:48;;;;;;;17.65;10.35;;;7.20;99.90;;;;;;1952947;73;21037;-71
2021/04/21 07:03:14;;;;;;;17.73;9.98;;;7.30;99.90;;;;;;1956076;73;21053;-71
2021/04/21 07:05:45;;;;;;;17.10;8.90;;;7.50;99.90;;;;;;1956394;73;21137;-71
2021/04/21 07:08:08;;;;;;;17.02;9.70;;;7.80;99.90;;;;;;1955466;73;21065;-71
2021/04/21 07:10:34;;;;;;;15.53;9.88;;;7.90;99.90;;;;;;1956119;73;21081;-71
2021/04/21 07:13:00;;;;;;;20.32;10.03;;;8.10;99.90;;;;;;1955651;73;21072;-72
2021/04/21 07:15:27;;;;;;;16.45;9.23;;;8.10;99.90;;;;;;1955331;73;21089;-72
2021/04/21 07:17:53;;;;;;;17.05;9.20;;;8.20;99.90;;;;;;1953367;73;21091;-73
2021/04/21 07:20:19;;;;;;;13.90;8.85;;;8.30;99.90;;;;;;1956289;73;21033;-72
2021/04/21 07:22:45;;;;;;;14.90;8.95;;;8.20;99.90;;;;;;1956134;73;21099;-73
2021/04/21 07:25:11;;;;;;;17.55;9.78;;;8.50;99.90;;;;;;1956069;73;21146;-73
2021/04/21 07:27:37;;;;;;;17.87;9.13;;;8.50;99.90;;;;;;1956079;73;21151;-73
2021/04/21 07:30:03;;;;;;;19.45;9.63;;;8.70;99.90;;;;;;1956104;73;21100;-71
2021/04/21 07:32:32;;;;;;;16.07;9.03;;;8.90;99.90;;;;;;1956277;73;21033;-73
2021/04/21 07:34:57;;;;;;;16.62;9.05;;;9.00;99.90;;;;;;1956120;73;21104;-73
2021/04/21 07:37:23;;;;;;;18.42;9.73;;;9.10;99.90;;;;;;1956410;73;21204;-73
2021/04/21 07:39:49;;;;;;;15.40;8.30;;;9.50;99.90;;;;;;1956357;73;21126;-73
2021/04/21 07:42:16;;;;;;;19.92;8.80;;;9.70;99.90;;;;;;1956405;73;21029;-73
2021/04/21 07:44:55;;;;;;;16.00;8.25;;;10.40;99.90;;;;;;1956383;73;21058;-73
2021/04/21 07:47:21;;;;;;;17.15;8.93;;;10.30;99.90;;;;;;1956444;73;21060;-73
2021/04/21 07:49:48;;;;;;;22.87;9.43;;;10.30;99.90;;;;;;1956421;73;21056;-73
2021/04/21 07:52:14;;;;;;;17.45;8.40;;;10.40;99.90;;;;;;1956272;73;21548;-74
2021/04/21 07:54:42;;;;;;;18.07;8.00;;;10.90;99.90;;;;;;1956197;73;21524;-73
2021/04/21 07:57:08;;;;;;;16.97;7.58;;;11.10;99.90;;;;;;1956327;73;21067;-74
2021/04/21 07:59:34;;;;;;;21.00;8.53;;;11.80;99.90;;;;;;1956254;73;21536;-73
2021/04/21 08:02:00;;;;;;;19.02;9.63;;;12.00;99.90;;;;;;1956322;73;21460;-73
2021/04/21 08:04:26;;;;;;;16.02;8.38;;;11.90;99.90;;;;;;1956196;73;21488;-73
2021/04/21 08:06:52;;;;;;;16.85;8.15;;;12.20;99.90;;;;;;1956272;73;21479;-73
2021/04/21 08:09:19;;;;;;;13.65;7.75;;;12.60;99.90;;;;;;1956186;73;21468;-74
2021/04/21 08:11:45;;;;;;;17.05;7.87;;;13.30;99.90;;;;;;1956186;73;21073;-74
2021/04/21 08:14:11;;;;;;;18.87;8.00;;;13.60;99.90;;;;;;1956201;73;21044;-74
2021/04/21 08:16:37;;;;;;;16.97;7.78;;;13.70;99.90;;;;;;1956159;73;21069;-74
2021/04/21 08:19:03;;;;;;;17.60;8.43;;;13.70;99.90;;;;;;1956240;73;21103;-74
2021/04/21 08:21:29;;;;;;;14.95;7.40;;;13.80;99.90;;;;;;1956149;73;21049;-74
2021/04/21 08:23:55;;;;;;;13.20;7.65;;;14.00;99.90;;;;;;1956189;73;21385;-74
2021/04/21 08:26:22;;;;;;;13.70;7.47;;;14.00;99.90;;;;;;1956165;73;21150;-74
2021/04/21 08:28:48;;;;;;;15.48;7.95;;;14.70;99.90;;;;;;1956060;73;21093;-73
2021/04/21 08:31:14;;;;;;;14.65;7.85;;;15.00;99.90;;;;;;1956092;72;21101;-74
2021/04/21 08:33:40;;;;;;;16.27;8.00;;;14.40;99.90;;;;;;1956142;73;21093;-73
2021/04/21 08:36:06;;;;;;;13.70;7.50;;;14.00;99.90;;;;;;1956171;73;21089;-74
2021/04/21 08:38:32;;;;;;;16.85;7.92;;;14.20;99.90;;;;;;1956132;73;21104;-74
2021/04/21 08:40:58;;;;;;;15.98;7.80;;;14.70;99.90;;;;;;1956146;73;21085;-74
2021/04/21 08:43:24;;;;;;;16.50;7.92;;;15.50;99.90;;;;;;1956154;73;21125;-74
2021/04/21 08:45:53;;;;;;;13.15;7.15;;;15.40;99.90;;;;;;1956231;73;21045;-74
2021/04/21 08:48:18;;;;;;;15.35;7.85;;;15.60;99.90;;;;;;1955935;73;21151;-74
2021/04/21 08:50:45;;;;;;;13.58;7.10;;;15.70;99.90;;;;;;1956213;73;21134;-74
2021/04/21 08:53:11;;;;;;;16.25;7.60;;;16.20;99.90;;;;;;1956321;73;21060;-74
2021/04/21 08:55:37;;;;;;;13.22;6.53;;;16.10;99.90;;;;;;1956385;73;21056;-74
2021/04/21 08:58:03;;;;;;;14.23;7.35;;;16.40;99.90;;;;;;1956332;73;21145;-74
2021/04/21 09:00:29;;;;;;;14.87;7.95;;;16.10;99.90;;;;;;1956244;73;21073;-74
2021/04/21 09:02:55;;;;;;;16.87;7.40;;;16.00;99.90;;;;;;1956095;73;21088;-74
2021/04/21 09:05:21;;;;;;;18.48;7.28;;;16.50;99.90;;;;;;1956312;73;21489;-73
2021/04/21 09:07:47;;;;;;;16.37;7.35;;;17.00;99.90;;;;;;1956185;73;21540;-74
2021/04/21 09:10:14;;;;;;;14.23;7.12;;;16.30;99.90;;;;;;1956181;73;21608;-76
2021/04/21 09:12:40;;;;;;;15.93;7.83;;;16.50;99.90;;;;;;1956139;73;21507;-74
2021/04/21 09:15:06;;;;;;;13.03;7.20;;;16.30;99.90;;;;;;1956143;73;21524;-75
2021/04/21 09:17:32;;;;;;;14.87;7.10;;;16.50;99.90;;;;;;1956087;73;21516;-75
2021/04/21 09:19:58;;;;;;;16.57;7.80;;;17.00;99.90;;;;;;1956224;73;21488;-74
2021/04/21 09:22:25;;;;;;;14.50;7.03;;;17.20;99.90;;;;;;1956042;73;21036;-75
2021/04/21 09:24:51;;;;;;;15.23;6.97;;;16.70;99.90;;;;;;1956031;73;21603;-74
2021/04/21 09:27:19;;;;;;;15.03;6.90;;;16.40;99.90;;;;;;1956059;73;21163;-74
2021/04/21 09:29:45;;;;;;;11.00;6.20;;;16.90;99.90;;;;;;1956156;73;21085;-74
2021/04/21 09:32:11;;;;;;;13.78;6.83;;;17.10;99.90;;;;;;1955619;73;21076;-74
2021/04/21 09:34:37;;;;;;;11.38;5.87;;;17.40;99.90;;;;;;1956173;73;21086;-75
2021/04/21 09:37:03;;;;;;;14.38;6.55;;;17.40;99.90;;;;;;1956186;73;21136;-75
2021/04/21 09:39:29;;;;;;;10.88;6.25;;;17.50;99.90;;;;;;1956147;73;21104;-75
2021/04/21 09:41:56;;;;;;;11.83;6.10;;;17.70;99.90;;;;;;1956175;73;21082;-75
2021/04/21 09:44:25;;;;;;;11.60;6.17;;;17.90;99.90;;;;;;1956873;73;21241;-73
2021/04/21 09:46:50;;;;;;;16.80;7.03;;;18.50;99.90;;;;;;1954014;73;21089;-75
2021/04/21 09:49:18;;;;;;;12.85;6.25;;;17.80;99.90;;;;;;1956563;73;21126;-77
2021/04/21 09:51:43;;;;;;;9.50;5.30;;;18.00;99.90;;;;;;1957640;73;21121;-74
2021/04/21 09:54:10;;;;;;;10.05;5.47;;;17.90;99.90;;;;;;1956141;73;21089;-75
2021/04/21 09:56:36;;;;;;;13.68;6.20;;;18.30;99.90;;;;;;1956147;73;21089;-75
2021/04/21 09:59:02;;;;;;;11.03;6.03;;;19.10;99.90;;;;;;1956084;73;21097;-75
2021/04/21 10:01:28;;;;;;;11.20;5.28;;;19.60;99.90;;;;;;1956239;73;21060;-74
2021/04/21 10:03:54;;;;;;;9.90;5.55;;;19.10;99.90;;;;;;1956195;73;21064;-74
2021/04/21 10:06:21;;;;;;;12.33;5.45;;;19.90;99.90;;;;;;1955596;73;21092;-75
2021/04/21 10:08:47;;;;;;;8.75;5.17;;;19.30;99.40;;;;;;1956006;73;21090;-75
2021/04/21 10:11:13;;;;;;;14.07;5.45;;;19.30;99.40;;;;;;1955328;73;21112;-74
2021/04/21 10:13:39;;;;;;;12.50;6.47;;;19.50;98.20;;;;;;1956170;73;21056;-74
2021/04/21 10:16:05;;;;;;;11.65;4.85;;;18.80;98.60;;;;;;1954757;73;21072;-74
2021/04/21 10:18:32;;;;;;;13.22;5.60;;;18.30;99.20;;;;;;1955948;73;21573;-75
2021/04/21 10:20:58;;;;;;;10.55;5.50;;;18.10;99.10;;;;;;1956193;73;21500;-75
2021/04/21 10:23:24;;;;;;;13.50;5.53;;;18.10;99.90;;;;;;1956301;73;21562;-75
2021/04/21 10:25:50;;;;;;;10.75;5.03;;;18.70;99.20;;;;;;1956057;73;21540;-75
2021/04/21 10:28:16;;;;;;;9.70;5.08;;;19.50;99.30;;;;;;1956073;73;21122;-75
2021/04/21 10:30:42;;;;;;;7.85;4.53;;;20.20;96.20;;;;;;1956386;73;21060;-76
2021/04/21 10:33:08;;;;;;;8.78;4.33;;;20.50;94.40;;;;;;1956104;73;21168;-74
2021/04/21 10:35:37;;;;;;;7.67;3.70;;;19.70;92.90;;;;;;1956296;73;21064;-76
2021/04/21 10:38:03;;;;;;;8.93;4.60;;;19.10;92.30;;;;;;1956067;73;21158;-76
2021/04/21 10:40:29;;;;;;;9.85;4.95;;;18.90;93.50;;;;;;1956089;73;21104;-76
2021/04/21 10:42:58;;;;;;;9.15;5.00;;;18.70;94.50;;;;;;1956128;73;21081;-75
2021/04/21 10:45:25;;;;;;;6.45;4.00;;;18.90;95.10;;;;;;1955821;73;21099;-76
2021/04/21 10:47:51;;;;;;;13.08;4.35;;;19.50;93.60;;;;;;1956064;71;21096;-76
2021/04/21 10:50:17;;;;;;;8.18;4.65;;;19.90;92.30;;;;;;1956108;73;21611;-75
2021/04/21 10:52:43;;;;;;;8.98;4.03;;;20.10;90.50;;;;;;1956183;73;21830;-75
2021/04/21 10:55:10;;;;;;;7.83;3.55;;;20.00;90.30;;;;;;1956283;73;21036;-76
2021/04/21 10:57:36;;;;;;;4.62;2.83;;;19.50;84.20;;;;;;1956375;73;21553;-75
2021/04/21 11:00:03;;;;;;;8.88;3.37;;;19.30;81.50;;;;;;1956290;73;21538;-75
2021/04/21 11:02:29;;;;;;;4.35;3.12;;;19.90;81.90;;;;;;1956187;73;21098;-76
2021/04/21 11:04:56;;;;;;;5.40;2.90;;;19.90;80.30;;;;;;1956326;73;21072;-76
2021/04/21 11:07:22;;;;;;;6.35;3.27;;;19.40;79.30;;;;;;1956360;73;21126;-75
2021/04/21 11:09:48;;;;;;;5.08;2.72;;;19.30;74.70;;;;;;1956232;73;21532;-76
2021/04/21 11:12:15;;;;;;;5.65;3.12;;;19.60;75.00;;;;;;1956501;73;21530;-76
2021/04/21 11:14:41;;;;;;;7.03;3.15;;;19.50;75.30;;;;;;1956480;73;21464;-75
2021/04/21 11:17:07;;;;;;;5.47;3.02;;;19.50;75.40;;;;;;1956170;73;21061;-76
2021/04/21 11:19:34;;;;;;;5.05;3.25;;;20.00;73.80;;;;;;1956226;73;21184;-75
2021/04/21 11:22:00;;;;;;;6.80;3.55;;;20.30;72.40;;;;;;1956241;73;21045;-76
2021/04/21 11:24:26;;;;;;;6.17;4.10;;;20.30;77.60;;;;;;1956203;73;21192;-75
2021/04/21 11:26:52;;;;;;;7.92;3.42;;;20.30;74.90;;;;;;1956234;73;21637;-75
2021/04/21 11:29:18;;;;;;;10.30;4.55;;;20.20;71.20;;;;;;1956300;73;21436;-77
2021/04/21 11:31:51;;;;;;;8.15;3.67;;;20.40;74.60;;;;;;1956224;73;21128;-75
2021/04/21 11:34:17;;;;;;;10.30;4.00;;;20.30;74.40;;;;;;1956166;73;21528;-78
2021/04/21 11:36:44;;;;;;;7.08;3.45;;;20.80;73.90;;;;;;1956250;73;21106;-76
2021/04/21 11:39:10;;;;;;;6.80;3.65;;;21.80;71.20;;;;;;1956043;73;21179;-76
2021/04/21 11:41:36;;;;;;;6.30;3.70;;;21.90;70.20;;;;;;1956278;73;21480;-78
2021/04/21 11:44:02;;;;;;;6.05;3.87;;;21.90;69.90;;;;;;1956147;73;21421;-78
2021/04/21 11:46:28;;;;;;;7.47;3.65;;;21.60;70.40;;;;;;1956164;73;21535;-83
2021/04/21 11:48:54;;;;;;;7.25;3.75;;;21.30;71.00;;;;;;1956084;73;21568;-84
2021/04/21 11:51:20;;;;;;;9.85;3.85;;;21.80;70.10;;;;;;1956193;73;21114;-84
2021/04/21 11:53:46;;;;;;;6.95;3.20;;;22.10;67.40;;;;;;1956036;73;21077;-83
2021/04/21 11:56:13;;;;;;;6.15;3.35;;;22.30;67.90;;;;;;1956421;73;21060;-85
2021/04/21 11:58:40;;;;;;;5.67;3.12;;;22.90;64.00;;;;;;1956590;73;21096;-83
2021/04/21 12:01:07;;;;;;;5.37;3.27;;;23.00;63.70;;;;;;1956680;73;21130;-84
2021/04/21 12:03:33;;;;;;;4.55;2.90;;;23.20;62.10;;;;;;1957276;73;21133;-85
2021/04/21 12:05:59;;;;;;;5.67;3.70;;;23.30;64.90;;;;;;1956174;73;21100;-85
2021/04/21 12:08:26;;;;;;;6.65;3.40;;;23.80;60.50;;;;;;1956592;73;21013;-85
2021/04/21 12:10:53;;;;;;;6.95;3.70;;;24.00;59.80;;;;;;1956775;73;21068;-85
2021/04/21 12:13:19;;;;;;;6.85;3.50;;;24.10;58.50;;;;;;1956414;73;21101;-84
2021/04/21 12:15:45;;;;;;;6.10;3.55;;;23.20;57.80;;;;;;1930386;73;21081;-85
2021/04/21 12:18:11;;;;;;;5.12;3.00;;;22.50;58.40;;;;;;1956372;73;21092;-86
2021/04/21 12:20:37;;;;;;;5.15;2.95;;;22.80;59.50;;;;;;1956366;73;21528;-85
2021/04/21 12:23:03;;;;;;;4.53;2.80;;;23.20;57.20;;;;;;1957272;73;21158;-85
2021/04/21 12:25:29;;;;;;;4.72;3.15;;;23.80;56.60;;;;;;1956603;73;21131;-87
2021/04/21 12:27:56;;;;;;;5.92;3.27;;;24.00;55.30;;;;;;1956396;73;21041;-84
2021/04/21 12:30:24;;;;;;;6.78;3.05;;;24.00;55.20;;;;;;1955986;73;21469;-83
2021/04/21 12:32:50;;;;;;;4.85;2.58;;;24.40;56.60;;;;;;1954003;73;21089;-86
2021/04/21 12:35:16;;;;;;;5.83;3.08;;;23.90;54.30;;;;;;1956206;73;21097;-87
2021/04/21 12:37:42;;;;;;;7.53;3.17;;;23.10;56.70;;;;;;1956546;73;21522;-86
2021/04/21 12:40:08;;;;;;;6.17;2.98;;;23.60;53.40;;;;;;1956336;73;21083;-87